createdAt,value
2017-06-24T09:15:15.288Z,3.87
2017-06-24T09:17:44.802Z,3.50
2017-06-24T09:20:14.450Z,3.33
2017-06-24T09:22:43.956Z,2.90
2017-06-24T09:25:13.597Z,4.77
2017-06-24T09:27:43.105Z,5.90
2017-06-24T09:30:12.619Z,4.60
2017-06-24T09:32:42.099Z,8.73
2017-06-24T09:35:11.612Z,3.53
2017-06-24T09:37:41.246Z,3.40
2017-06-24T09:40:10.750Z,4.67
2017-06-24T09:42:40.247Z,4.17
2017-06-24T09:45:09.755Z,4.13
2017-06-24T09:47:39.230Z,3.43
2017-06-24T09:50:08.772Z,4.80
2017-06-24T09:52:38.273Z,3.00
2017-06-24T09:55:07.794Z,2.83
2017-06-24T09:57:37.281Z,4.07
2017-06-24T10:00:06.794Z,3.40
2017-06-24T10:02:36.268Z,2.93
2017-06-24T10:05:05.812Z,3.07
2017-06-24T10:07:35.294Z,3.20
2017-06-24T10:10:04.924Z,2.73
2017-06-24T10:12:34.466Z,5.83
2017-06-24T10:15:03.989Z,2.57
2017-06-24T10:17:33.523Z,3.83
2017-06-24T10:20:02.996Z,3.03
2017-06-24T10:22:32.564Z,3.70
2017-06-24T10:25:02.044Z,2.80
2017-06-24T10:27:31.564Z,2.87
2017-06-24T10:30:01.099Z,3.00
2017-06-24T10:32:30.624Z,3.27
2017-06-24T10:35:00.160Z,3.37
2017-06-24T10:37:29.625Z,2.60
2017-06-24T10:39:59.191Z,2.70
2017-06-24T10:42:28.712Z,2.90
2017-06-24T10:44:58.194Z,3.70
2017-06-24T10:47:27.753Z,3.10
2017-06-24T10:49:57.254Z,3.07
2017-06-24T10:52:26.767Z,6.23
2017-06-24T10:54:56.268Z,5.00
2017-06-24T10:57:25.780Z,3.87
2017-06-24T10:59:55.258Z,2.70
2017-06-24T11:02:24.832Z,2.60
2017-06-24T11:04:54.323Z,3.30
2017-06-24T11:07:23.878Z,3.90
2017-06-24T11:09:53.403Z,2.70
2017-06-24T11:12:23.085Z,2.57
2017-06-24T11:14:52.574Z,2.80
2017-06-24T11:17:22.106Z,3.50
2017-06-24T11:19:51.599Z,2.70
2017-06-24T11:22:21.143Z,2.73
2017-06-24T11:24:50.652Z,2.20
2017-06-24T11:27:20.124Z,3.50
2017-06-24T11:29:50.271Z,3.90
2017-06-24T11:32:19.749Z,3.50
2017-06-24T11:34:49.252Z,3.40
2017-06-24T11:37:18.721Z,4.23
2017-06-24T11:39:48.251Z,3.70
2017-06-24T11:42:17.748Z,3.60
2017-06-24T11:44:47.269Z,2.87
2017-06-24T11:47:16.799Z,3.07
2017-06-24T11:49:46.310Z,3.50
2017-06-24T11:52:15.852Z,3.07
2017-06-24T11:54:45.365Z,4.00
2017-06-24T11:57:14.877Z,4.40
2017-06-24T11:59:44.404Z,3.77
2017-06-24T12:02:13.892Z,4.00
2017-06-24T12:04:43.435Z,5.20
2017-06-24T12:07:12.934Z,3.80
2017-06-24T12:09:42.482Z,3.80
2017-06-24T12:12:12.102Z,3.77
2017-06-24T12:14:42.072Z,5.77
2017-06-24T12:17:11.744Z,4.27
2017-06-24T12:19:41.215Z,5.30
2017-06-24T12:22:10.745Z,4.40
2017-06-24T12:24:40.342Z,4.90
2017-06-24T12:27:09.866Z,4.37
2017-06-24T12:29:39.334Z,4.17
2017-06-24T12:32:08.859Z,4.13
2017-06-24T12:34:38.379Z,3.80
2017-06-24T12:37:07.918Z,4.30
2017-06-24T12:39:37.410Z,3.73
2017-06-24T12:42:06.925Z,4.10
2017-06-24T12:44:36.445Z,4.63
2017-06-24T12:47:06.003Z,4.60
2017-06-24T12:49:35.509Z,5.10
2017-06-24T12:52:05.037Z,4.90
2017-06-24T12:54:34.651Z,4.10
2017-06-24T12:57:04.149Z,3.80
2017-06-24T12:59:33.642Z,4.70
2017-06-24T13:02:03.106Z,4.50
2017-06-24T13:04:32.634Z,3.10
2017-06-24T13:07:02.147Z,8.03
2017-06-24T13:09:31.975Z,4.90
2017-06-24T13:12:01.461Z,6.00
2017-06-24T13:14:30.975Z,3.40
2017-06-24T13:17:00.546Z,4.33
2017-06-24T13:19:30.055Z,5.10
2017-06-24T13:21:59.692Z,3.53
2017-06-24T13:24:29.188Z,4.07
2017-06-24T13:26:58.678Z,3.43
2017-06-24T13:29:28.158Z,3.60
2017-06-24T13:31:57.662Z,4.10
2017-06-24T13:34:27.179Z,5.23
2017-06-24T13:36:56.716Z,3.70
2017-06-24T13:39:26.231Z,3.63
2017-06-24T13:41:55.710Z,3.37
2017-06-24T13:44:25.210Z,3.53
2017-06-24T13:46:54.694Z,3.50
2017-06-24T13:49:24.359Z,3.87
2017-06-24T13:51:53.852Z,4.90
2017-06-24T13:54:23.380Z,4.00
2017-06-24T13:56:52.863Z,3.70
2017-06-24T13:59:22.384Z,3.53
2017-06-24T14:01:51.902Z,4.90
2017-06-24T14:04:21.410Z,3.00
2017-06-24T14:06:50.901Z,5.10
2017-06-24T14:09:20.398Z,9.63
2017-06-24T14:11:49.886Z,13.77
2017-06-24T14:14:19.434Z,9.20
2017-06-24T14:16:48.914Z,12.00
2017-06-24T14:19:18.424Z,7.77
2017-06-24T14:21:47.920Z,5.50
2017-06-24T14:24:17.417Z,6.30
2017-06-24T14:26:46.914Z,6.27
2017-06-24T14:29:16.428Z,4.97
2017-06-24T14:31:45.940Z,4.50
2017-06-24T14:34:15.462Z,4.83
2017-06-24T14:36:45.094Z,3.80
2017-06-24T14:39:14.577Z,3.80
2017-06-24T14:41:44.102Z,6.70
2017-06-24T14:44:13.643Z,3.67
2017-06-24T14:46:43.213Z,3.37
2017-06-24T14:49:12.726Z,3.53
2017-06-24T14:51:42.217Z,3.53
2017-06-24T14:54:11.704Z,2.80
2017-06-24T14:56:41.208Z,3.40
2017-06-24T14:59:10.717Z,3.50
2017-06-24T15:01:40.234Z,3.40
2017-06-24T15:04:09.727Z,4.30
2017-06-24T15:06:39.251Z,3.60
2017-06-24T15:09:08.781Z,3.70
2017-06-24T15:11:38.259Z,8.33
2017-06-24T15:14:07.775Z,6.73
2017-06-24T15:16:37.273Z,3.77
2017-06-24T15:19:06.762Z,3.73
2017-06-24T15:21:36.241Z,4.10
2017-06-24T15:24:05.788Z,4.20
2017-06-24T15:26:35.288Z,2.97
2017-06-24T15:29:04.782Z,2.70
2017-06-24T15:31:34.304Z,3.30
2017-06-24T15:34:03.811Z,2.60
2017-06-24T15:36:33.591Z,3.57
2017-06-24T15:39:03.058Z,3.70
2017-06-24T15:41:32.558Z,2.83
2017-06-24T15:44:02.191Z,3.20
2017-06-24T15:46:31.677Z,2.50
2017-06-24T15:49:01.225Z,2.30
2017-06-24T15:51:30.767Z,3.00
2017-06-24T15:54:00.260Z,2.60
2017-06-24T15:56:29.789Z,3.20
2017-06-24T15:58:59.251Z,3.13
2017-06-24T16:01:28.765Z,3.10
2017-06-24T16:03:58.354Z,3.00
2017-06-24T16:06:27.819Z,2.90
2017-06-24T16:08:57.327Z,3.17
2017-06-24T16:11:26.812Z,4.63
2017-06-24T16:13:56.330Z,2.70
2017-06-24T16:16:25.830Z,2.40
2017-06-24T16:18:55.365Z,5.17
2017-06-24T16:21:24.921Z,2.80
2017-06-24T16:23:54.565Z,2.30
2017-06-24T16:26:24.073Z,2.37
2017-06-24T16:28:53.621Z,2.20
2017-06-24T16:31:23.112Z,2.60
2017-06-24T16:33:52.625Z,2.03
2017-06-24T16:36:22.307Z,2.47
2017-06-24T16:38:51.826Z,3.23
2017-06-24T16:41:21.324Z,2.60
2017-06-24T16:43:50.854Z,2.57
2017-06-24T16:46:20.349Z,2.93
2017-06-24T16:48:49.856Z,2.67
2017-06-24T16:51:19.383Z,2.50
2017-06-24T16:53:48.910Z,2.40
2017-06-24T16:56:18.465Z,2.33
2017-06-24T16:58:47.974Z,2.53
2017-06-24T17:01:17.445Z,2.03
2017-06-24T17:03:47.133Z,3.00
2017-06-24T17:06:16.597Z,2.30
2017-06-24T17:08:46.138Z,3.37
2017-06-24T17:11:15.634Z,2.90
2017-06-24T17:13:45.113Z,4.57
2017-06-24T17:16:14.629Z,3.83
2017-06-24T17:18:44.133Z,5.50
2017-06-24T17:21:13.649Z,2.83
2017-06-24T17:23:43.150Z,2.17
2017-06-24T17:26:12.678Z,4.43
2017-06-24T17:28:42.151Z,5.13
2017-06-24T17:31:11.655Z,2.80
2017-06-24T17:33:41.229Z,3.60
2017-06-24T17:36:10.773Z,2.97
2017-06-24T17:38:40.264Z,2.10
2017-06-24T17:41:09.775Z,2.30
2017-06-24T17:43:39.258Z,2.67
2017-06-24T17:46:08.771Z,3.73
2017-06-24T17:48:38.296Z,3.00
2017-06-24T17:51:07.762Z,2.50
2017-06-24T17:53:37.300Z,3.30
2017-06-24T17:56:06.802Z,2.63
2017-06-24T17:58:36.358Z,3.80
2017-06-24T18:01:05.863Z,2.20
2017-06-24T18:03:35.369Z,3.63
2017-06-24T18:06:04.862Z,2.90
2017-06-24T18:08:34.352Z,3.67
2017-06-24T18:11:03.892Z,2.83
2017-06-24T18:13:33.381Z,2.60
2017-06-24T18:16:02.912Z,4.87
2017-06-24T18:18:32.398Z,2.90
2017-06-24T18:21:01.911Z,2.73
2017-06-24T18:23:31.407Z,2.70
2017-06-24T18:26:00.918Z,2.87
2017-06-24T18:28:30.398Z,4.57
2017-06-24T18:30:59.902Z,3.00
2017-06-24T18:33:29.562Z,3.17
2017-06-24T18:35:59.112Z,3.83
2017-06-24T18:38:28.685Z,2.90
2017-06-24T18:40:58.159Z,4.13
2017-06-24T18:43:27.700Z,3.30
2017-06-24T18:45:57.291Z,4.20
2017-06-24T18:48:26.902Z,5.30
2017-06-24T18:50:56.542Z,4.27
2017-06-24T18:53:26.062Z,4.10
2017-06-24T18:55:55.689Z,3.67
2017-06-24T18:58:25.335Z,3.93
2017-06-24T19:00:54.822Z,3.43
2017-06-24T19:03:24.323Z,4.40
2017-06-24T19:05:53.790Z,3.40
2017-06-24T19:08:23.335Z,3.33
2017-06-24T19:10:52.844Z,3.60
2017-06-24T19:13:22.333Z,3.30
2017-06-24T19:15:51.843Z,3.83
2017-06-24T19:18:21.363Z,3.60
2017-06-24T19:20:50.858Z,3.30
2017-06-24T19:23:20.382Z,3.60
2017-06-24T19:25:49.941Z,3.97
2017-06-24T19:28:19.460Z,4.20
2017-06-24T19:30:48.967Z,3.33
2017-06-24T19:33:18.574Z,3.33
2017-06-24T19:35:48.096Z,3.53
2017-06-24T19:38:17.593Z,3.30
2017-06-24T19:40:47.099Z,3.90
2017-06-24T19:43:17.232Z,3.90
2017-06-24T19:45:46.933Z,3.33
2017-06-24T19:48:16.733Z,5.10
2017-06-24T19:50:46.362Z,3.73
2017-06-24T19:53:15.817Z,3.70
2017-06-24T19:55:45.330Z,3.10
2017-06-24T19:58:14.841Z,5.17
2017-06-24T20:00:44.428Z,3.67
2017-06-24T20:03:13.953Z,3.90
2017-06-24T20:05:43.432Z,3.23
2017-06-24T20:08:12.933Z,3.70
2017-06-24T20:10:42.470Z,3.60
2017-06-24T20:13:11.999Z,4.03
2017-06-24T20:15:41.478Z,3.63
2017-06-24T20:18:10.991Z,4.20
2017-06-24T20:20:40.480Z,3.10
2017-06-24T20:23:09.976Z,4.10
2017-06-24T20:25:39.488Z,3.60
2017-06-24T20:28:08.998Z,4.37
2017-06-24T20:30:38.612Z,3.87
2017-06-24T20:33:08.103Z,5.23
2017-06-24T20:35:37.647Z,5.37
2017-06-24T20:38:07.132Z,4.17
2017-06-24T20:40:36.674Z,5.20
2017-06-24T20:43:06.167Z,7.30
2017-06-24T20:45:35.677Z,4.63
2017-06-24T20:48:05.146Z,3.80
2017-06-24T20:50:34.680Z,3.47
2017-06-24T20:53:04.184Z,4.23
2017-06-24T20:55:33.700Z,4.43
2017-06-24T20:58:03.363Z,4.10
2017-06-24T21:00:32.826Z,3.97
2017-06-24T21:03:02.429Z,3.37
2017-06-24T21:05:31.898Z,3.60
2017-06-24T21:08:01.435Z,5.07
2017-06-24T21:10:30.955Z,3.47
2017-06-24T21:13:00.465Z,4.00
2017-06-24T21:15:29.939Z,3.80
2017-06-24T21:17:59.421Z,3.07
2017-06-24T21:20:28.910Z,3.23
2017-06-24T21:22:58.370Z,3.60
2017-06-24T21:25:27.942Z,4.43
2017-06-24T21:27:57.445Z,3.63
2017-06-24T21:30:26.949Z,4.40
2017-06-24T21:32:56.414Z,6.20
2017-06-24T21:35:25.965Z,4.30
2017-06-24T21:37:55.482Z,3.50
2017-06-24T21:40:24.977Z,3.23
2017-06-24T21:42:54.831Z,4.03
2017-06-24T21:45:24.336Z,3.50
2017-06-24T21:47:53.862Z,3.70
2017-06-24T21:50:23.338Z,3.67
2017-06-24T21:52:52.848Z,3.40
2017-06-24T21:55:22.328Z,3.50
2017-06-24T21:57:51.829Z,3.23
2017-06-24T22:00:21.317Z,3.70
2017-06-24T22:02:51.433Z,3.37
2017-06-24T22:05:20.895Z,3.07
2017-06-24T22:07:50.403Z,4.77
2017-06-24T22:10:19.908Z,3.13
2017-06-24T22:12:49.377Z,3.27
2017-06-24T22:15:18.895Z,3.20
2017-06-24T22:17:48.378Z,3.23
2017-06-24T22:20:17.893Z,4.00
2017-06-24T22:22:47.400Z,3.83
2017-06-24T22:25:16.892Z,3.33
2017-06-24T22:27:46.448Z,2.60
2017-06-24T22:30:15.967Z,2.57
2017-06-24T22:32:45.450Z,2.93
2017-06-24T22:35:14.951Z,2.70
2017-06-24T22:37:44.482Z,2.40
2017-06-24T22:40:13.962Z,2.37
2017-06-24T22:42:43.479Z,2.40
2017-06-24T22:45:13.009Z,2.27
2017-06-24T22:47:42.531Z,3.50
2017-06-24T22:50:12.047Z,2.23
2017-06-24T22:52:41.523Z,3.97
2017-06-24T22:55:11.026Z,2.10
2017-06-24T22:57:40.489Z,1.90
2017-06-24T23:00:10.007Z,2.87
2017-06-24T23:02:39.471Z,2.10
2017-06-24T23:05:08.967Z,2.83
2017-06-24T23:07:38.459Z,19.10
2017-06-24T23:10:08.024Z,18.67
2017-06-24T23:12:38.183Z,38.33
2017-06-24T23:15:07.696Z,62.40
2017-06-24T23:17:37.183Z,45.87
2017-06-24T23:20:06.710Z,44.77
2017-06-24T23:22:36.243Z,35.33
2017-06-24T23:25:05.787Z,28.37
2017-06-24T23:27:35.283Z,24.83
2017-06-24T23:30:04.765Z,18.90
2017-06-24T23:32:34.338Z,14.93
2017-06-24T23:35:03.860Z,12.30
2017-06-24T23:37:33.361Z,10.47
2017-06-24T23:40:02.901Z,9.90
2017-06-24T23:42:32.395Z,7.20
2017-06-24T23:45:01.922Z,6.80
2017-06-24T23:47:31.405Z,5.30
2017-06-24T23:50:01.116Z,4.80
2017-06-24T23:52:30.640Z,5.17
2017-06-24T23:55:00.131Z,4.07
2017-06-24T23:57:29.731Z,3.00
2017-06-24T23:59:59.266Z,2.87
